Palermo, California
Current Conditions -  °F | °C
As of 7:53 PM on Saturday 25 Oct 2014 (Local Time) from KOVE Reporting Station
Few Clouds Few Clouds  
Wind Chill: 62°   Ceiling: Unl
Heat Index: 62°   Visibility: 10mi
Dew Point: 55°   Wind: 9mph
Humidity: 78%   Direction: 140°SE
Pressure: 30.04"   Gusts: NA
Location:  39.44°N, 121.54°W
Report Text: KOVE 260253Z AUTO 14008KT 10SM FEW090 17/13 A3004 RMK AO2 SLP176 60001 T01670128 53009
Loading
Personal Weather Stations






























Interactive Weather Map
Tropical Storm Tracking
New forecast layout! Learn more

10-Day Weather Forecast

Advertisements
Track Severe Weather on mobile